Search for airport 
image banner adimage banner adimage banner ad
image banner ad

4CL3 - Antelope Valley Ranch

Located in Williams, United States

ICAO - 4CL3, IATA -

Data provided by Airmate  

General information

Coordinates: N39°8'47" W122°21'15"
Elevation is 530 feet MSL.
Magnetic variation is 16° East
View others Airports in California

Operational data

Special qualification required
Current time UTC:
Current local time:
Weather at : KMYV - Yuba County ( 68 km )
METAR: KMYV 221253Z AUTO 15011KT 10SM CLR 16/11 A2986 RMK AO2 SLP116 T01560111
View NOTAMs / SUP AIP / TFR affecting this airport [VIEW]
Communications frequencies: [VIEW]

Runways:

RWY identifierQFULength (ft)Width (ft)SurfaceLDA (ft)
15300060GRASS
33300060GRASS

Airport contact information

Address: Williams United States

Satellite view of 4CL3